GOOD

Diourbel Airport

Diourbel, Senegal
METAR GOOD 191500Z 04006KT CAVOK 28/07 Q1015
Observed Flight Rules
Jan-19 @ 15:00 UTC (2 hours ago) Visual Flight Rules
Wind Visibility Clouds
40° at 6 knots 10,000+ meters
  • Clear skies
Temperatures Readings
Current 28°C / 82°F
Dewpoint 7°C / 45°F
Humidity 26%
Altimeter 29.97" Hg
Pressure 1014.92 hPa
Elevation 9
METAR GOOD 191500Z 04006KT CAVOK 28/07 Q1015
Observed Flight Rules
Jan-19 @ 15:00 UTC
(2 hours ago)
VFR
Wind Visibility
40° at 6 knots 10,000+ meters
Clouds
  • Clear skies
Temperature Dewpoint
28°C / 82°F 7°C / 45°F
Humidity Altimeter Pressure
26% 29.97" Hg 1014.92 hPa